Weather reports worldwide

Advertisment
Hohenpeißenberg, Germany (10962): temperature & dewpoint: 09.12.2018 07:00:00 - 15.12.2018 07:00:00 (CET)Hohenpeißenberg, Germany (10962): temperature 5cm & temperature -5cm: 09.12.2018 07:00:00 - 15.12.2018 07:00:00 (CET)Hohenpeißenberg, Germany (10962): temperature -20cm & temperature -100cm: 09.12.2018 07:00:00 - 15.12.2018 07:00:00 (CET)Hohenpeißenberg, Germany (10962): wind speed & gusts: 09.12.2018 07:00:00 - 15.12.2018 07:00:00 (CET)Hohenpeißenberg, Germany (10962): wind direction: 09.12.2018 07:00:00 - 15.12.2018 07:00:00 (CET)Hohenpeißenberg, Germany (10962): visibility: 09.12.2018 07:00:00 - 15.12.2018 07:00:00 (CET)Hohenpeißenberg, Germany (10962): sunshine duration: 09.12.2018 07:00:00 - 15.12.2018 07:00:00 (CET)Hohenpeißenberg, Germany (10962): precipitation: 09.12.2018 07:00:00 - 15.12.2018 07:00:00 (CET)
Date & Time tt [°C] td [°C] tt 5cm [°C] tt -5cm [°C] tt -20cm [°C] tt -100cm [°C] ff [km/h] ff [kn] fx [km/h] fx [kn] dd vv [km] sd [min] rr [mm]
15.12.2018 07:00:00 -7,4 -8,8 -7,0 0,5 1,5 6,4 6 3 11 6 E 8 0 0,0
15.12.2018 06:00:00 -7,1 -8,2 -6,7 0,5 1,5 6,4 0 0 11 6 N 5 0 0,0
15.12.2018 05:00:00 -7,0 -8,1 -6,6 0,5 1,5 6,4 6 3 11 6 ESE 5 0 0,0
15.12.2018 04:00:00 -7,1 -8,4 -6,8 0,5 1,5 6,4 2 1 10 6 NNE 11 0 -
15.12.2018 03:00:00 -7,1 -8,6 -6,7 0,5 1,5 6,4 0 0 12 7 N 11 0 0,0
15.12.2018 02:00:00 -7,3 -9,2 -6,8 0,5 1,5 6,4 4 2 10 5 N 16 0 0,0
15.12.2018 01:00:00 -7,3 -9,7 -7,0 0,6 1,6 6,4 3 2 10 6 NW 20 0 0,0
15.12.2018 00:00:00 -7,1 -8,6 -6,8 0,6 1,6 6,4 0 0 9 5 N 17 0 0,0
14.12.2018 23:00:00 -7,1 -9,2 -6,7 0,6 1,6 6,5 8 4 11 6 SW 16 0 0,0
14.12.2018 22:00:00 -6,8 -8,2 -6,5 0,6 1,6 6,5 5 3 9 5 S 12 0 0,0
14.12.2018 21:00:00 -6,8 -8,3 -6,4 0,6 1,6 6,5 5 3 14 8 SSE 13 0 0,0
14.12.2018 20:00:00 -6,9 -8,4 -6,5 0,6 1,6 6,5 4 2 9 5 E 13 0 0,0
14.12.2018 19:00:00 -7,1 -8,8 -6,6 0,6 1,6 6,5 7 4 15 8 NE 25 0 0,0
14.12.2018 18:00:00 -6,9 -8,4 -6,5 0,6 1,6 6,5 8 4 13 7 ENE 25 0 0,0
14.12.2018 17:00:00 -6,7 -8,0 -6,3 0,6 1,6 6,5 8 4 16 9 NE 20 0 0,0
14.12.2018 16:00:00 -6,6 -8,0 -6,0 0,7 1,6 6,5 7 4 13 7 NE 23 0 0,0
14.12.2018 15:00:00 -6,7 -8,5 -5,9 0,7 1,6 6,5 9 5 14 8 NE 15 0 0,0
14.12.2018 14:00:00 -6,3 -8,0 -5,3 0,7 1,6 6,5 7 4 14 8 ENE 15 0 0,0
14.12.2018 13:00:00 -6,6 -8,4 -5,6 0,7 1,6 6,5 7 4 16 9 ENE 15 0 0,0
14.12.2018 12:00:00 -7,0 -8,6 -5,9 0,6 1,6 6,5 7 4 16 9 ENE 13 0 0,0
14.12.2018 11:00:00 -7,3 -8,8 -6,3 0,6 1,6 6,5 9 5 17 9 ENE 13 0 0,0
14.12.2018 10:00:00 -7,3 -8,6 -6,7 0,6 1,6 6,6 8 4 16 9 ENE 13 0 0,0
14.12.2018 09:00:00 -7,3 -8,4 -6,9 0,6 1,6 6,6 8 5 16 8 E 10 0 0,0
14.12.2018 08:00:00 -7,2 -8,1 -6,8 0,6 1,6 6,6 6 4 13 7 ESE 7 0 0,0
14.12.2018 07:00:00 -7,1 -8,1 -6,8 0,6 1,6 6,6 6 3 13 7 ESE 4,0 0 0,0
14.12.2018 06:00:00 -7,0 -7,9 -6,7 0,6 1,6 6,6 5 3 13 7 E 3,0 0 0,0
14.12.2018 05:00:00 -6,9 -7,7 -6,7 0,6 1,6 6,6 6 3 10 6 E 0,9 0 0,0
14.12.2018 04:00:00 -6,5 -7,3 -6,2 0,6 1,6 6,6 6 3 14 8 E 0,5 0 0,0
14.12.2018 03:00:00 -6,2 -7,0 -5,9 0,6 1,7 6,6 5 3 15 8 ENE 0,5 0 0,0
14.12.2018 02:00:00 -6,1 -7,1 -5,8 0,6 1,7 6,6 7 4 12 6 ENE 1,5 0 0,0
14.12.2018 01:00:00 -6,0 -6,8 -5,7 0,6 1,7 6,6 8 4 18 10 NE 0,9 0 0,0
14.12.2018 00:00:00 -5,9 -6,7 -5,7 0,6 1,7 6,6 10 5 18 10 NE 0,9 0 0,0
13.12.2018 23:00:00 -5,8 -6,5 -5,5 0,6 1,7 6,6 8 4 18 10 E 0,9 0 0,0
13.12.2018 22:00:00 -5,5 -6,2 -5,3 0,6 1,7 6,6 10 5 25 14 ENE 4,0 0 0,0
13.12.2018 21:00:00 -5,6 -6,6 -5,3 0,6 1,7 6,6 10 5 21 11 E 4,0 0 0,0
13.12.2018 20:00:00 -5,2 -5,8 -5,0 0,6 1,7 6,7 8 4 19 10 E 3,0 0 0,0
13.12.2018 19:00:00 -5,2 -5,8 -5,0 0,7 1,7 6,7 13 7 22 12 ENE 15 0 0,0
13.12.2018 18:00:00 -5,1 -5,8 -4,9 0,7 1,8 6,7 12 7 23 12 NE 18 0 0,0
13.12.2018 17:00:00 -4,9 -5,7 -4,6 0,7 1,8 6,7 10 6 22 12 ENE 20 0 0,0
13.12.2018 16:00:00 -4,8 -5,7 -4,6 0,8 1,8 6,7 11 6 24 13 ENE 20 0 0,0
13.12.2018 15:00:00 -4,6 -6,0 -4,0 0,8 1,8 6,7 16 9 26 14 NE 20 25 0,0
13.12.2018 14:00:00 -4,5 -5,8 -3,8 0,8 1,8 6,7 15 8 23 13 NE 20 38 0,0
13.12.2018 13:00:00 -4,6 -5,8 -4,2 0,9 1,8 6,7 16 9 27 15 NE 18 12 0,0
13.12.2018 12:00:00 -4,6 -5,7 -3,3 0,9 1,8 6,7 12 7 28 15 ENE 18 9 0,0
13.12.2018 11:00:00 -5,4 -6,4 -5,0 0,8 1,8 6,7 16 9 27 15 ENE 12 0 0,0
13.12.2018 10:00:00 -5,3 -6,1 -5,1 0,7 1,8 6,7 11 6 21 11 E 12 0 0,0
13.12.2018 09:00:00 -5,1 -5,7 -4,8 0,7 1,8 6,7 11 6 26 14 E 0,9 0 0,0
13.12.2018 08:00:00 -5,5 -6,1 -5,2 0,7 1,8 6,7 9 5 20 11 E 0,8 0 0,0
13.12.2018 07:00:00 -5,4 -5,8 -5,1 0,7 1,8 6,8 8 5 19 10 ESE 0,8 0 0,0
13.12.2018 06:00:00 -5,0 -5,3 -4,7 0,7 1,8 6,8 9 5 18 10 E 0,1 0 0,0
13.12.2018 05:00:00 -5,0 -5,8 -4,8 0,7 1,8 6,8 9 5 20 11 E 6 0 0,0
13.12.2018 04:00:00 -4,3 -4,6 -4,1 0,7 1,8 6,8 8 4 17 9 E 0,1 0 0,0
13.12.2018 03:00:00 -4,0 -4,2 -3,7 0,7 1,8 6,8 9 5 21 11 E 0,1 0 0,0
13.12.2018 02:00:00 -3,8 -4,1 -3,6 0,7 1,8 6,8 11 6 18 10 ENE 0,1 0 0,0
13.12.2018 01:00:00 -3,7 -3,9 -3,5 0,7 1,8 6,8 10 5 19 10 E 0,1 0 0,0
13.12.2018 00:00:00 -3,8 -4,6 -3,7 0,7 1,8 6,8 10 6 18 10 E 4,0 0 0,0
12.12.2018 23:00:00 -3,6 -3,9 -3,4 0,7 1,8 6,8 9 5 19 10 E 0,1 0 0,0
12.12.2018 22:00:00 -3,5 -3,7 -3,3 0,7 1,8 6,8 9 5 18 10 E 0,2 0 0,0
12.12.2018 21:00:00 -3,5 -4,2 -3,4 0,7 1,8 6,8 9 5 20 11 E 7 0 0,0
12.12.2018 20:00:00 -3,6 -4,1 -3,4 0,7 1,8 6,8 13 7 24 13 ENE 5 0 0,0
12.12.2018 19:00:00 -3,4 -3,8 -3,2 0,7 1,8 6,9 9 5 19 10 ENE 0,2 0 0,0
12.12.2018 18:00:00 -4,1 -4,6 -5,2 0,7 1,8 6,9 10 5 15 8 ENE 8 0 0,0
12.12.2018 17:00:00 -3,8 -4,5 -5,4 0,8 1,9 6,9 11 6 21 11 NNE 12 0 0,0
12.12.2018 16:00:00 -3,3 -3,9 -4,0 0,8 1,9 6,9 12 7 19 11 NNE 6 2 0,0
12.12.2018 15:00:00 -3,3 -4,8 -3,6 0,8 1,9 6,9 8 4 12 7 NNE 15 36 0,0
12.12.2018 14:00:00 -2,4 -4,0 -1,7 0,8 1,9 6,9 4 2 10 5 NNE 15 0 0,0
12.12.2018 13:00:00 -2,7 -4,0 -1,8 0,8 1,9 6,9 7 4 11 6 N 15 0 0,0
12.12.2018 12:00:00 -2,5 -5,0 -1,6 0,8 1,9 6,9 6 4 12 7 W 17 0 0,0
12.12.2018 11:00:00 -3,5 -5,2 -2,7 0,8 1,9 6,9 10 5 16 9 WNW 4,0 0 0,0
12.12.2018 10:00:00 -3,8 -7,1 -3,7 0,8 1,9 6,9 14 8 18 10 W 8 0 0,0
12.12.2018 09:00:00 -3,7 -5,4 -3,6 0,8 1,9 6,9 14 7 21 11 WSW 26 0 0,0
12.12.2018 08:00:00 -3,8 -5,3 -4,0 0,8 1,9 6,9 12 6 23 12 W 28 0 0,0
12.12.2018 07:00:00 -4,2 -6,0 -4,6 0,8 1,9 7,0 11 6 24 13 NNW 40 0 0,0
12.12.2018 06:00:00 -4,0 -7,0 -4,4 0,8 1,9 7,0 16 9 29 16 W 40 0 0,0
12.12.2018 05:00:00 -3,4 -6,3 -3,8 0,8 1,9 7,0 19 10 32 17 W 40 0 0,0
12.12.2018 04:00:00 -3,4 -5,8 -4,0 0,8 2,0 7,0 22 12 33 18 WSW 30 0 0,0
12.12.2018 03:00:00 -3,2 -5,7 -3,5 0,8 2,0 7,0 18 10 30 16 WSW 30 0 0,0
12.12.2018 02:00:00 -3,3 -5,2 -3,7 0,8 2,0 7,0 18 10 27 15 WSW 30 0 0,0
12.12.2018 01:00:00 -3,4 -5,1 -3,7 0,8 2,0 7,0 17 9 24 13 WSW 30 0 0,0
12.12.2018 00:00:00 -3,5 -4,9 -4,3 0,8 2,0 7,0 14 8 24 13 W 30 0 0,0
11.12.2018 23:00:00 -3,2 -4,5 -4,1 0,8 2,0 7,0 16 9 27 14 WSW 18 0 0,0
11.12.2018 22:00:00 -3,0 -4,2 -3,5 0,8 2,0 7,0 16 9 27 15 W 20 0 0,0
11.12.2018 21:00:00 -3,1 -4,2 -4,1 0,8 2,0 7,0 17 9 26 14 WSW 25 0 0,0
11.12.2018 20:00:00 -2,8 -3,9 -3,4 0,8 2,0 7,1 18 10 29 15 WSW 25 0 0,0
11.12.2018 19:00:00 -2,6 -3,9 -2,8 0,8 2,0 7,1 19 11 30 16 W 25 0 0,0
11.12.2018 18:00:00 -2,5 -3,6 -2,7 0,9 2,1 7,1 15 8 34 18 W 7 0 0,0
11.12.2018 17:00:00 -2,5 -3,4 -2,8 0,9 2,1 7,1 16 9 32 17 WSW 20 0 0,0
11.12.2018 16:00:00 -2,6 -3,0 -2,8 0,9 2,1 7,1 19 11 40 21 WSW 0,9 0 0,2
11.12.2018 15:00:00 -2,2 -3,2 -2,2 0,9 2,1 7,1 22 12 41 22 WSW 25 5 0,0
11.12.2018 14:00:00 -2,2 -3,0 -1,7 0,9 2,1 7,1 23 13 41 22 WSW 25 7 0,1
11.12.2018 13:00:00 -2,7 -3,0 -2,5 0,9 2,1 7,1 23 12 44 24 WSW 0,1 4 0,2
11.12.2018 12:00:00 -2,1 -3,1 -1,6 0,9 2,1 7,1 24 13 40 21 WSW 20 1 0,1
11.12.2018 11:00:00 -2,7 -3,8 -2,7 0,9 2,1 7,1 25 14 48 26 WSW 18 0 0,0
11.12.2018 10:00:00 -2,6 -3,9 -2,5 0,9 2,2 7,1 25 14 47 26 WSW 6 6 0,1
11.12.2018 09:00:00 -2,9 -3,2 -2,8 0,9 2,2 7,1 29 16 46 25 SW 0,2 0 0,2
11.12.2018 08:00:00 -3,0 -3,6 -3,0 0,9 2,2 7,1 24 13 40 22 WSW 10 0 0,0
11.12.2018 07:00:00 -2,9 -4,1 -3,1 0,9 2,2 7,1 18 10 35 19 WSW 8 0 0,1
11.12.2018 06:00:00 -3,0 -3,8 -2,9 0,9 2,2 7,2 20 11 37 20 WSW 8 0 0,2
11.12.2018 05:00:00 -3,0 -3,9 -3,1 0,9 2,2 7,2 18 10 32 17 WSW 8 0 0,1
11.12.2018 04:00:00 -2,9 -3,7 -3,0 0,9 2,2 7,2 16 8 30 16 W 30 0 0,0
11.12.2018 03:00:00 -2,9 -4,1 -3,0 0,9 2,2 7,2 17 9 33 18 W 40 0 0,0
11.12.2018 02:00:00 -2,9 -3,7 -3,0 0,9 2,3 7,2 17 9 36 19 W 30 0 0,0
11.12.2018 01:00:00 -2,9 -3,6 -3,0 0,9 2,3 7,2 16 9 42 23 NW 22 0 0,0
11.12.2018 00:00:00 -2,6 -3,0 -2,9 0,9 2,3 7,2 21 11 45 24 NW 15 0 0,0
10.12.2018 23:00:00 -1,9 -2,0 -1,8 0,9 2,3 7,2 24 13 53 29 NW 0,6 0 1,1
10.12.2018 22:00:00 -1,3 -2,3 -1,4 0,9 2,3 7,2 25 13 47 26 W 0,9 0 0,0
10.12.2018 21:00:00 -1,6 -2,0 -1,6 0,9 2,3 7,2 27 14 48 26 WSW 0,8 0 0,3
10.12.2018 20:00:00 -1,3 -1,7 -1,2 0,9 2,4 7,2 24 13 42 23 WSW 0,1 0 0,2
10.12.2018 19:00:00 -1,3 -1,9 -1,4 0,9 2,4 7,2 18 10 35 19 W 30 0 0,0
10.12.2018 18:00:00 -1,5 -2,5 -2,0 0,9 2,4 7,2 21 11 43 23 W 18 0 0,0
10.12.2018 17:00:00 -1,1 -2,1 -1,3 1,0 2,5 7,2 26 14 44 24 WSW 18 0 0,0
10.12.2018 16:00:00 -0,3 -1,4 -0,5 1,0 2,5 7,2 23 13 48 26 WSW 15 14 0,0
10.12.2018 15:00:00 -0,9 -1,5 -0,8 1,0 2,5 7,2 26 14 41 22 WSW 12 1 0,0
10.12.2018 14:00:00 -1,1 -1,3 -0,8 1,1 2,6 7,2 21 11 35 19 W 0,1 0 0,3
10.12.2018 13:00:00 -0,6 -2,0 -0,9 1,1 2,6 7,3 21 11 44 24 W 12 0 0,0
10.12.2018 12:00:00 -0,9 -1,2 -0,7 1,0 2,6 7,3 20 11 46 25 W 0,1 0 0,1
10.12.2018 11:00:00 -1,3 -1,5 -1,1 1,0 2,7 7,3 18 10 44 24 W 0,1 0 0,1
10.12.2018 10:00:00 -1,0 -1,2 -0,9 1,1 2,7 7,3 18 10 47 25 NW 0,1 0 0,1
10.12.2018 09:00:00 -0,6 -1,2 -0,7 1,2 2,8 7,3 28 15 61 33 W 0,1 0 0,1
10.12.2018 08:00:00 -0,2 -1,5 -0,5 1,2 2,9 7,3 34 18 66 36 WSW 20 0 0,0
10.12.2018 07:00:00 -0,3 -1,3 -0,6 1,2 2,9 7,3 34 18 61 33 WSW 30 0 0,0
10.12.2018 06:00:00 -0,2 -1,3 -0,6 1,3 3,0 7,3 40 21 71 38 WSW 3,0 0 0,1
10.12.2018 05:00:00 -0,3 -0,3 0,0 1,4 3,0 7,3 31 17 67 36 W 0,1 0 0,8
10.12.2018 04:00:00 0,4 0,2 0,4 1,7 3,1 7,3 29 15 58 32 W 1,4 0 0,0
10.12.2018 03:00:00 0,8 0,4 0,7 1,8 3,1 7,3 32 17 63 34 W 14 0 0,0
10.12.2018 02:00:00 1,0 0,8 1,0 1,7 3,1 7,3 35 19 63 34 WSW 0,3 0 0,2
10.12.2018 01:00:00 1,1 0,9 1,1 1,8 3,2 7,3 26 14 47 25 WSW 7 0 0,0
10.12.2018 00:00:00 1,2 1,1 1,1 1,6 3,2 7,3 24 13 54 29 W 0,9 0 1,5
09.12.2018 23:00:00 1,5 1,5 1,6 2,3 3,3 7,3 25 14 56 31 W 0,4 0 0,7
09.12.2018 22:00:00 1,8 1,8 1,9 2,3 3,3 7,3 25 14 59 32 W 0,1 0 0,8
09.12.2018 21:00:00 1,8 1,8 1,8 2,2 3,4 7,3 32 18 68 37 W 0,2 0 0,0
09.12.2018 20:00:00 1,4 1,3 1,4 2,1 3,4 7,3 38 21 74 40 WSW 0,9 0 0,0
09.12.2018 19:00:00 1,1 1,1 1,2 2,1 3,5 7,4 42 23 78 42 WSW 0,9 0 0,3
09.12.2018 18:00:00 1,0 1,0 1,0 2,1 3,5 7,4 49 26 70 38 WSW 0,9 0 0,6
09.12.2018 17:00:00 0,9 0,8 0,9 2,4 3,6 7,4 52 28 79 43 WSW 0,8 0 0,3
09.12.2018 16:00:00 0,8 0,8 0,9 2,6 3,6 7,4 43 23 69 38 WSW 9 0 0,0
09.12.2018 15:00:00 1,2 1,0 1,4 2,8 3,6 7,4 44 24 77 41 SW 10 0 0,0
09.12.2018 14:00:00 1,8 1,2 1,7 2,8 3,6 7,4 48 26 83 45 SW 20 0 0,1
09.12.2018 13:00:00 2,3 0,9 2,2 2,8 3,6 7,4 50 27 92 50 SW 35 0 0,0
09.12.2018 12:00:00 1,6 1,3 1,7 2,4 3,6 7,4 49 27 80 43 WSW 22 0 0,6
09.12.2018 11:00:00 0,4 0,4 0,4 2,6 3,7 7,4 32 18 69 37 WSW 0,1 0 0,1
09.12.2018 10:00:00 2,5 1,1 2,1 2,5 3,7 7,4 41 22 85 46 WSW 10 0 0,0
09.12.2018 09:00:00 1,0 1,0 1,0 2,2 3,8 7,4 32 17 61 33 WSW 13 0 0,0
09.12.2018 08:00:00 0,3 0,3 0,3 2,4 3,8 7,4 27 15 98 53 W - 0 1,8
09.12.2018 07:00:00 3,7 2,0 3,2 3,3 3,9 7,4 52 28 99 54 SW 40 0 0,0

tt = temperature
td = dewpoint
tt 5cm = temperature 5cm
tt -5cm = temperature -5cm
tt -20cm = temperature -20cm
tt -100cm = temperature -100cm
ff = wind speed
fx = gusts
dd = wind direction
vv = visibility
sd = sunshine duration
rr = precipitation

Next stations